createdAt,value
2017-09-07T00:02:01.681Z,81.70
2017-09-07T00:04:31.053Z,82.10
2017-09-07T00:07:00.405Z,82.30
2017-09-07T00:09:30.505Z,82.20
2017-09-07T00:11:59.757Z,82.20
2017-09-07T00:14:29.268Z,81.70
2017-09-07T00:16:58.561Z,81.50
2017-09-07T00:19:27.809Z,81.30
2017-09-07T00:21:57.083Z,81.30
2017-09-07T00:24:26.339Z,81.50
2017-09-07T00:26:56.368Z,81.10
2017-09-07T00:29:52.930Z,80.90
2017-09-07T00:32:22.897Z,80.50
2017-09-07T00:34:52.206Z,80.50
2017-09-07T00:37:22.314Z,80.70
2017-09-07T00:39:51.534Z,80.00
2017-09-07T00:42:20.808Z,79.50
2017-09-07T00:44:50.120Z,79.90
2017-09-07T00:47:19.322Z,80.00
2017-09-07T00:49:48.582Z,79.70
2017-09-07T00:52:17.833Z,79.60
2017-09-07T00:54:47.707Z,79.40
2017-09-07T00:57:17.162Z,79.10
2017-09-07T00:59:47.209Z,78.80
2017-09-07T01:02:16.620Z,78.80
2017-09-07T01:04:46.593Z,79.70
2017-09-07T01:07:15.901Z,79.70
2017-09-07T01:09:45.154Z,80.00
2017-09-07T01:12:14.407Z,79.40
2017-09-07T01:14:43.679Z,79.30
2017-09-07T01:17:13.014Z,79.90
2017-09-07T01:19:43.041Z,79.80
2017-09-07T01:22:12.282Z,79.70
2017-09-07T01:24:41.741Z,79.60
2017-09-07T01:27:10.991Z,79.70
2017-09-07T01:29:40.330Z,79.90
2017-09-07T01:32:10.351Z,79.40
2017-09-07T01:34:39.634Z,79.30
2017-09-07T01:37:08.875Z,79.60
2017-09-07T01:39:38.160Z,79.30
2017-09-07T01:42:07.422Z,79.70
2017-09-07T01:44:36.946Z,80.30
2017-09-07T01:47:06.183Z,79.90
2017-09-07T01:49:35.442Z,79.70
2017-09-07T01:52:04.709Z,79.70
2017-09-07T01:54:34.823Z,80.10
2017-09-07T01:57:04.086Z,79.50
2017-09-07T01:59:33.370Z,79.80
2017-09-07T02:02:03.379Z,80.00
2017-09-07T02:04:32.653Z,80.00
2017-09-07T02:07:01.970Z,80.20
2017-09-07T02:09:31.173Z,80.30
2017-09-07T02:12:00.434Z,80.50
2017-09-07T02:14:29.675Z,81.10
2017-09-07T02:16:59.102Z,80.60
2017-09-07T02:19:29.273Z,81.40
2017-09-07T02:21:58.525Z,80.50
2017-09-07T02:24:28.557Z,80.20
2017-09-07T02:26:57.838Z,80.20
2017-09-07T02:29:27.106Z,80.80
2017-09-07T02:31:56.545Z,80.90
2017-09-07T02:34:26.559Z,81.40
2017-09-07T02:36:55.842Z,80.90
2017-09-07T02:39:25.083Z,80.90
2017-09-07T02:41:54.350Z,81.00
2017-09-07T02:44:23.673Z,80.70
2017-09-07T02:46:53.675Z,81.30
2017-09-07T02:49:22.942Z,81.30
2017-09-07T02:51:52.185Z,81.50
2017-09-07T02:54:22.301Z,81.80
2017-09-07T02:56:52.421Z,81.80
2017-09-07T02:59:25.002Z,81.70
2017-09-07T03:01:54.302Z,81.30
2017-09-07T03:04:23.544Z,81.50
2017-09-07T03:06:52.813Z,81.30
2017-09-07T03:09:22.117Z,81.70
2017-09-07T03:11:51.389Z,81.80
2017-09-07T03:14:20.660Z,81.80
2017-09-07T03:16:49.918Z,81.80
2017-09-07T03:19:20.029Z,81.30
2017-09-07T03:21:49.275Z,81.20
2017-09-07T03:24:18.539Z,81.60
2017-09-07T03:26:47.783Z,80.90
2017-09-07T03:29:17.046Z,81.90
2017-09-07T03:31:47.213Z,81.80
2017-09-07T03:34:16.476Z,81.70
2017-09-07T03:36:45.725Z,81.80
2017-09-07T03:39:14.981Z,81.40
2017-09-07T03:41:44.252Z,81.20
2017-09-07T03:44:13.663Z,81.30
2017-09-07T03:46:43.807Z,80.90
2017-09-07T03:49:13.830Z,81.40
2017-09-07T03:51:43.073Z,81.20
2017-09-07T03:54:12.346Z,80.10
2017-09-07T03:56:41.593Z,80.60
2017-09-07T03:59:10.853Z,81.00
2017-09-07T04:01:40.094Z,81.40
2017-09-07T04:04:09.347Z,81.10
2017-09-07T04:06:38.650Z,80.90
2017-09-07T04:09:07.902Z,80.90
2017-09-07T04:11:37.198Z,81.50
2017-09-07T04:14:06.446Z,81.20
2017-09-07T04:16:35.713Z,81.50
2017-09-07T04:19:05.143Z,81.70
2017-09-07T04:21:34.407Z,81.50
2017-09-07T04:24:03.722Z,81.50
2017-09-07T04:26:33.764Z,81.50
2017-09-07T04:29:03.154Z,81.40
2017-09-07T04:31:33.256Z,81.50
2017-09-07T04:34:02.606Z,81.50
2017-09-07T04:36:31.853Z,81.60
2017-09-07T04:39:01.094Z,81.90
2017-09-07T04:41:30.365Z,81.50
2017-09-07T04:43:59.629Z,81.30
2017-09-07T04:46:28.876Z,79.60
2017-09-07T04:48:58.893Z,81.40
2017-09-07T04:51:28.153Z,81.30
2017-09-07T04:53:57.583Z,80.70
2017-09-07T04:56:27.603Z,79.80
2017-09-07T04:58:57.002Z,79.70
2017-09-07T05:01:26.274Z,79.40
2017-09-07T05:03:55.533Z,79.60
2017-09-07T05:06:25.490Z,80.80
2017-09-07T05:08:54.735Z,80.30
2017-09-07T05:11:24.014Z,80.40
2017-09-07T05:13:53.253Z,80.00
2017-09-07T05:16:22.545Z,79.70
2017-09-07T05:18:52.689Z,79.50
2017-09-07T05:21:21.982Z,79.50
2017-09-07T05:23:51.965Z,79.50
2017-09-07T05:26:21.296Z,79.50
2017-09-07T05:28:50.505Z,79.30
2017-09-07T05:31:19.823Z,78.60
2017-09-07T05:33:49.084Z,78.60
2017-09-07T05:36:19.085Z,78.10
2017-09-07T05:38:48.521Z,78.10
2017-09-07T05:41:17.894Z,78.40
2017-09-07T05:43:47.706Z,78.50
2017-09-07T05:46:17.077Z,79.00
2017-09-07T05:48:46.342Z,78.70
2017-09-07T05:51:15.629Z,77.80
2017-09-07T05:53:45.542Z,76.90
2017-09-07T05:56:15.585Z,76.20
2017-09-07T05:58:44.835Z,76.20
2017-09-07T06:01:14.090Z,76.80
2017-09-07T06:03:43.343Z,76.60
2017-09-07T06:06:12.606Z,76.70
2017-09-07T06:08:41.954Z,76.70
2017-09-07T06:11:11.990Z,76.50
2017-09-07T06:13:41.237Z,76.50
2017-09-07T06:16:10.506Z,76.30
2017-09-07T06:18:39.760Z,76.10
2017-09-07T06:21:09.209Z,76.20
2017-09-07T06:23:38.462Z,76.20
2017-09-07T06:26:07.721Z,75.90
2017-09-07T06:28:36.989Z,75.40
2017-09-07T06:31:06.226Z,76.30
2017-09-07T06:33:35.496Z,76.00
2017-09-07T06:36:04.790Z,76.30
2017-09-07T06:38:34.053Z,75.60
2017-09-07T06:41:03.322Z,75.30
2017-09-07T06:43:32.757Z,74.10
2017-09-07T06:46:02.824Z,74.00
2017-09-07T06:48:32.087Z,74.00
2017-09-07T06:51:01.461Z,73.90
2017-09-07T06:53:30.717Z,74.00
2017-09-07T06:55:59.973Z,73.50
2017-09-07T06:58:29.421Z,72.40
2017-09-07T07:00:58.670Z,72.10
2017-09-07T07:03:27.990Z,71.80
2017-09-07T07:05:57.243Z,72.20
2017-09-07T07:08:26.477Z,72.70
2017-09-07T07:10:55.762Z,72.80
2017-09-07T07:13:25.001Z,71.00
2017-09-07T07:15:54.346Z,69.30
2017-09-07T07:18:23.658Z,68.30
2017-09-07T07:20:53.082Z,69.20
2017-09-07T07:23:22.363Z,67.90
2017-09-07T07:25:51.625Z,67.50
2017-09-07T07:28:20.890Z,68.00
2017-09-07T07:30:50.135Z,68.00
2017-09-07T07:33:20.167Z,65.80
2017-09-07T07:35:49.407Z,65.60
2017-09-07T07:38:18.879Z,65.00
2017-09-07T07:40:48.910Z,63.60
2017-09-07T07:43:18.282Z,63.60
2017-09-07T07:45:48.331Z,62.80
2017-09-07T07:48:17.586Z,62.80
2017-09-07T07:50:46.826Z,62.90
2017-09-07T07:53:16.198Z,62.70
2017-09-07T07:55:45.616Z,62.40
2017-09-07T07:58:15.667Z,61.90
2017-09-07T08:00:44.954Z,61.90
2017-09-07T08:03:14.213Z,61.10
2017-09-07T08:05:43.474Z,60.20
2017-09-07T08:08:12.942Z,58.90
2017-09-07T08:10:42.985Z,56.30
2017-09-07T08:13:12.236Z,56.30
2017-09-07T08:15:41.510Z,56.70
2017-09-07T08:18:10.758Z,55.00
2017-09-07T08:20:40.773Z,55.10
2017-09-07T08:23:10.811Z,55.90
2017-09-07T08:25:40.916Z,55.20
2017-09-07T08:28:11.129Z,56.80
2017-09-07T08:30:40.377Z,56.80
2017-09-07T08:33:09.650Z,56.50
2017-09-07T08:35:39.681Z,55.50
2017-09-07T08:38:08.936Z,55.50
2017-09-07T08:40:38.369Z,54.50
2017-09-07T08:43:08.393Z,52.20
2017-09-07T08:45:37.659Z,52.00
2017-09-07T08:48:07.088Z,50.40
2017-09-07T08:50:37.127Z,49.80
2017-09-07T08:53:06.377Z,49.60
2017-09-07T08:55:35.652Z,47.90
2017-09-07T08:58:04.934Z,44.60
2017-09-07T09:00:34.181Z,43.10
2017-09-07T09:03:04.014Z,41.60
2017-09-07T09:05:34.053Z,35.90
2017-09-07T09:08:03.302Z,35.80
2017-09-07T09:10:32.685Z,34.30
2017-09-07T09:13:02.786Z,27.60
2017-09-07T09:15:32.103Z,27.50
2017-09-07T09:18:01.353Z,27.60
2017-09-07T09:20:30.618Z,26.10
2017-09-07T09:22:59.870Z,28.20
2017-09-07T09:25:29.140Z,30.70
2017-09-07T09:27:58.378Z,33.50
2017-09-07T09:30:28.434Z,37.70
2017-09-07T09:32:57.707Z,37.60
2017-09-07T09:35:27.723Z,42.60
2017-09-07T09:37:57.830Z,40.30
2017-09-07T13:18:21.961Z,37.60
2017-09-07T13:20:51.961Z,37.30
2017-09-07T13:23:21.379Z,37.20
2017-09-07T13:25:50.634Z,35.80
2017-09-07T13:28:19.887Z,36.50
2017-09-07T13:30:49.303Z,35.40
2017-09-07T13:33:19.311Z,35.40
2017-09-07T13:35:49.485Z,35.10
2017-09-07T13:38:19.051Z,35.00
2017-09-07T13:40:49.258Z,37.50
2017-09-07T13:43:18.513Z,36.90
2017-09-07T13:45:47.789Z,36.50
2017-09-07T13:48:17.051Z,37.40
2017-09-07T13:50:46.406Z,36.80
2017-09-07T13:53:16.440Z,37.00
2017-09-07T13:55:45.720Z,37.00
2017-09-07T13:58:15.722Z,35.30
2017-09-07T14:00:45.856Z,34.20
2017-09-07T14:03:15.977Z,34.20
2017-09-07T14:05:45.235Z,35.10
2017-09-07T14:08:14.586Z,34.20
2017-09-07T14:10:43.797Z,33.60
2017-09-07T14:13:13.075Z,34.70
2017-09-07T14:15:42.325Z,33.40
2017-09-07T14:18:11.774Z,34.70
2017-09-07T14:20:41.094Z,36.60
2017-09-07T14:23:10.390Z,36.50
2017-09-07T14:25:39.976Z,36.90
2017-09-07T14:28:09.201Z,38.00
2017-09-07T14:30:38.447Z,36.60
2017-09-07T14:33:07.713Z,37.60
2017-09-07T14:35:36.969Z,37.10
2017-09-07T14:38:07.076Z,38.60
2017-09-07T14:40:36.347Z,38.40
2017-09-07T14:43:05.623Z,39.30
2017-09-07T14:45:34.924Z,41.20
2017-09-07T14:48:04.967Z,40.40
2017-09-07T14:50:34.317Z,40.40
2017-09-07T14:53:04.343Z,39.50
2017-09-07T14:55:33.609Z,39.40
2017-09-07T14:58:02.851Z,40.60
2017-09-07T15:00:32.961Z,40.70
2017-09-07T15:03:03.082Z,41.10
2017-09-07T15:05:33.453Z,42.50
2017-09-07T15:08:02.726Z,42.40
2017-09-07T15:10:32.140Z,41.50
2017-09-07T15:13:01.394Z,42.00
2017-09-07T15:15:30.723Z,43.20
2017-09-07T15:18:00.709Z,42.60
2017-09-07T15:20:30.045Z,42.10
2017-09-07T15:23:00.062Z,42.90
2017-09-07T15:25:29.329Z,43.00
2017-09-07T15:27:58.602Z,41.90
2017-09-07T15:30:27.851Z,41.10
2017-09-07T15:32:57.914Z,42.30
2017-09-07T15:35:27.154Z,42.20
2017-09-07T15:37:56.426Z,42.60
2017-09-07T15:40:25.679Z,42.50
2017-09-07T15:42:55.809Z,44.10
2017-09-07T15:45:25.870Z,43.50
2017-09-07T15:47:55.130Z,43.50
2017-09-07T15:50:24.518Z,43.50
2017-09-07T15:52:55.404Z,44.40
2017-09-07T15:55:24.658Z,43.80
2017-09-07T15:57:53.907Z,44.60
2017-09-07T16:00:23.180Z,45.40
2017-09-07T16:02:52.435Z,45.40
2017-09-07T16:05:21.691Z,46.00
2017-09-07T16:07:50.966Z,45.30
2017-09-07T16:10:20.267Z,46.10
2017-09-07T16:12:49.514Z,46.50
2017-09-07T16:15:18.977Z,47.00
2017-09-07T16:17:49.194Z,48.20
2017-09-07T16:20:18.464Z,48.10
2017-09-07T16:22:47.718Z,48.90
2017-09-07T16:25:16.979Z,48.50
2017-09-07T16:27:46.274Z,48.50
2017-09-07T16:30:15.677Z,48.70
2017-09-07T16:32:44.930Z,49.50
2017-09-07T16:35:14.218Z,49.20
2017-09-07T16:37:44.270Z,49.40
2017-09-07T16:40:13.702Z,49.40
2017-09-07T16:42:43.016Z,49.20
2017-09-07T16:45:12.267Z,49.00
2017-09-07T16:47:41.741Z,49.10
2017-09-07T16:50:11.198Z,49.70
2017-09-07T16:52:40.578Z,50.20
2017-09-07T16:55:09.849Z,51.10
2017-09-07T16:57:39.101Z,50.50
2017-09-07T17:00:08.349Z,50.70
2017-09-07T17:02:37.654Z,52.20
2017-09-07T17:05:06.971Z,52.60
2017-09-07T17:07:36.240Z,53.60
2017-09-07T17:10:05.514Z,54.80
2017-09-07T17:12:34.779Z,56.70
2017-09-07T17:15:04.025Z,57.30
2017-09-07T17:17:33.327Z,59.00
2017-09-07T17:20:03.258Z,58.20
2017-09-07T17:22:32.491Z,56.90
2017-09-07T17:25:01.755Z,54.90
2017-09-07T17:27:31.810Z,56.60
2017-09-07T17:30:01.927Z,59.20
2017-09-07T17:32:31.208Z,59.30
2017-09-07T17:35:01.246Z,54.80
2017-09-07T17:37:30.658Z,54.50
2017-09-07T17:39:59.924Z,53.70
2017-09-07T17:42:29.170Z,57.20
2017-09-07T17:44:58.436Z,56.20
2017-09-07T17:47:27.685Z,57.30
2017-09-07T17:49:56.997Z,58.20
2017-09-07T17:52:26.242Z,59.10
2017-09-07T17:54:56.282Z,56.10
2017-09-07T17:57:25.802Z,56.10
2017-09-07T17:59:55.052Z,55.40
2017-09-07T18:02:24.315Z,55.00
2017-09-07T18:04:53.586Z,54.50
2017-09-07T18:07:23.120Z,55.60
2017-09-07T18:09:52.382Z,56.00
2017-09-07T18:12:21.689Z,55.80
2017-09-07T18:14:51.851Z,55.70
2017-09-07T18:17:21.118Z,55.60
2017-09-07T18:19:50.387Z,55.90
2017-09-07T18:22:20.413Z,59.00
2017-09-07T18:24:49.675Z,58.40
2017-09-07T18:27:18.950Z,58.70
2017-09-07T18:29:48.224Z,59.70
2017-09-07T18:32:18.330Z,60.60
2017-09-07T18:34:48.376Z,61.80
2017-09-07T18:37:17.663Z,61.00
2017-09-07T18:39:47.148Z,62.10
2017-09-07T18:42:16.437Z,63.20
2017-09-07T18:44:45.713Z,63.00
2017-09-07T18:47:15.182Z,62.90
2017-09-07T18:49:45.304Z,62.70
2017-09-07T18:52:15.385Z,62.10
2017-09-07T18:54:44.686Z,62.00
2017-09-07T18:57:13.971Z,63.20
2017-09-07T18:59:43.272Z,62.00
2017-09-07T19:02:12.638Z,60.60
2017-09-07T19:04:42.847Z,60.50
2017-09-07T19:07:12.194Z,60.50
2017-09-07T19:09:41.477Z,59.00
2017-09-07T19:12:10.854Z,58.80
2017-09-07T19:14:40.898Z,58.80
2017-09-07T19:17:10.282Z,58.80
2017-09-07T19:19:40.320Z,60.70
2017-09-07T19:22:10.135Z,60.60
2017-09-07T19:24:40.142Z,62.90
2017-09-07T19:27:09.444Z,62.90
2017-09-07T19:29:38.709Z,62.90
2017-09-07T19:32:07.988Z,63.80
2017-09-07T19:34:37.251Z,63.90
2017-09-07T19:37:06.509Z,63.70
2017-09-07T19:39:36.208Z,64.00
2017-09-07T19:42:05.494Z,64.20
2017-09-07T19:44:34.879Z,64.10
2017-09-07T19:47:05.727Z,64.90
2017-09-07T19:49:35.080Z,64.80
2017-09-07T19:52:05.121Z,66.30
2017-09-07T19:54:34.384Z,65.80
2017-09-07T19:57:03.652Z,66.10
2017-09-07T19:59:33.130Z,65.20
2017-09-07T20:02:03.144Z,66.30
2017-09-07T20:04:32.408Z,66.30
2017-09-07T20:07:02.426Z,66.80
2017-09-07T20:09:31.685Z,66.80
2017-09-07T20:12:00.970Z,66.60
2017-09-07T20:14:30.263Z,64.30
2017-09-07T20:16:59.551Z,63.30
2017-09-07T20:19:28.816Z,62.90
2017-09-07T20:21:58.083Z,61.70
2017-09-07T20:24:27.317Z,62.10
2017-09-07T20:26:56.591Z,62.10
2017-09-07T20:29:25.973Z,61.40
2017-09-07T20:31:55.252Z,60.60
2017-09-07T20:34:24.533Z,60.60
2017-09-07T20:36:53.815Z,60.60
2017-09-07T20:39:23.062Z,60.80
2017-09-07T20:41:52.385Z,60.60
2017-09-07T20:44:21.865Z,61.70
2017-09-07T20:46:51.144Z,64.10
2017-09-07T20:49:20.421Z,63.90
2017-09-07T20:51:49.707Z,64.40
2017-09-07T20:54:18.988Z,62.20
2017-09-07T20:56:48.294Z,61.90
2017-09-07T20:59:17.654Z,62.70
2017-09-07T21:01:46.912Z,62.50
2017-09-07T21:04:16.184Z,63.50
2017-09-07T21:06:46.207Z,65.30
2017-09-07T21:09:15.499Z,65.30
2017-09-07T21:11:44.743Z,65.70
2017-09-07T21:14:14.025Z,65.80
2017-09-07T21:16:43.500Z,65.30
2017-09-07T21:19:13.526Z,63.30
2017-09-07T21:21:42.785Z,63.30
2017-09-07T21:24:12.143Z,62.20
2017-09-07T21:26:41.634Z,65.20
2017-09-07T21:29:10.886Z,62.80
2017-09-07T21:31:40.205Z,62.00
2017-09-07T21:34:09.590Z,62.20
2017-09-07T21:36:39.063Z,63.80
2017-09-07T21:39:08.376Z,64.10
2017-09-07T21:41:37.673Z,62.80
2017-09-07T21:44:07.074Z,64.50
2017-09-07T21:46:36.322Z,63.80
2017-09-07T21:49:05.573Z,66.70
2017-09-07T21:51:34.868Z,65.90
2017-09-07T21:54:04.121Z,66.70
2017-09-07T21:56:33.388Z,67.20
2017-09-07T21:59:02.651Z,67.20
2017-09-07T22:01:32.702Z,67.80
2017-09-07T22:04:02.095Z,67.80
2017-09-07T22:06:32.091Z,67.70
2017-09-07T22:09:01.362Z,67.70
2017-09-07T22:11:31.435Z,68.10
2017-09-07T22:14:00.640Z,68.00
2017-09-07T22:16:29.902Z,69.00
2017-09-07T22:18:59.909Z,68.70
2017-09-07T22:21:29.249Z,69.00
2017-09-07T22:23:58.499Z,69.30
2017-09-07T22:26:27.755Z,69.20
2017-09-07T22:28:56.998Z,69.20
2017-09-07T22:31:26.270Z,69.40
2017-09-07T22:33:55.535Z,69.30
2017-09-07T22:36:25.543Z,70.00
2017-09-07T22:38:54.818Z,70.00
2017-09-07T22:41:24.053Z,70.00
2017-09-07T22:43:53.354Z,70.10
2017-09-07T22:46:23.383Z,70.30
2017-09-07T22:48:52.649Z,70.20
2017-09-07T22:51:21.882Z,69.30
2017-09-07T22:53:51.895Z,70.20
2017-09-07T22:56:21.168Z,70.00
2017-09-07T22:58:50.630Z,70.50
2017-09-07T23:01:20.097Z,70.80
2017-09-07T23:03:50.152Z,70.80
2017-09-07T23:06:19.401Z,70.70
2017-09-07T23:08:48.681Z,71.00
2017-09-07T23:11:17.961Z,70.80
2017-09-07T23:13:47.245Z,71.60
2017-09-07T23:16:16.522Z,71.40
2017-09-07T23:18:46.534Z,71.60
2017-09-07T23:21:15.793Z,71.70
2017-09-07T23:23:45.038Z,71.90
2017-09-07T23:26:15.076Z,72.10
2017-09-07T23:28:44.326Z,72.10
2017-09-07T23:31:13.590Z,72.70
2017-09-07T23:33:42.858Z,72.70
2017-09-07T23:36:12.105Z,73.00
2017-09-07T23:38:41.682Z,73.00
2017-09-07T23:41:11.802Z,72.90
2017-09-07T23:43:41.958Z,72.40
2017-09-07T23:46:11.230Z,72.40
2017-09-07T23:48:41.854Z,71.20
2017-09-07T23:51:11.247Z,71.10
2017-09-07T23:53:41.299Z,73.00
2017-09-07T23:56:10.565Z,72.30
2017-09-07T23:58:39.840Z,72.60
